sensor_id;sensor_type;location;lat;lon;timestamp;pressure;altitude;pressure_sealevel;temperature;humidity
73600;BME280;61877;48.246;9.220;2023-05-19T00:00:58;94511.19;;;10.21;71.17
73600;BME280;61877;48.246;9.220;2023-05-19T00:03:27;94518.00;;;10.19;71.80
73600;BME280;61877;48.246;9.220;2023-05-19T00:05:54;94508.22;;;10.23;70.01
73600;BME280;61877;48.246;9.220;2023-05-19T00:08:24;94502.97;;;10.26;70.13
73600;BME280;61877;48.246;9.220;2023-05-19T00:10:54;94505.53;;;10.23;70.63
73600;BME280;61877;48.246;9.220;2023-05-19T00:13:20;94507.75;;;10.21;71.52
73600;BME280;61877;48.246;9.220;2023-05-19T00:15:46;94504.28;;;10.20;70.97
73600;BME280;61877;48.246;9.220;2023-05-19T00:18:12;94501.13;;;10.18;71.55
73600;BME280;61877;48.246;9.220;2023-05-19T00:20:37;94498.44;;;10.18;71.53
73600;BME280;61877;48.246;9.220;2023-05-19T00:23:04;94498.91;;;10.20;70.23
73600;BME280;61877;48.246;9.220;2023-05-19T00:25:29;94503.66;;;10.15;70.99
73600;BME280;61877;48.246;9.220;2023-05-19T00:27:55;94490.78;;;10.08;71.08
73600;BME280;61877;48.246;9.220;2023-05-19T00:30:20;94492.69;;;10.08;71.53
73600;BME280;61877;48.246;9.220;2023-05-19T00:32:45;94496.44;;;10.07;71.28
73600;BME280;61877;48.246;9.220;2023-05-19T00:35:11;94489.38;;;10.11;71.90
73600;BME280;61877;48.246;9.220;2023-05-19T00:37:36;94489.38;;;10.11;70.29
73600;BME280;61877;48.246;9.220;2023-05-19T00:40:04;94486.03;;;10.05;71.86
73600;BME280;61877;48.246;9.220;2023-05-19T00:42:30;94484.16;;;10.06;71.26
73600;BME280;61877;48.246;9.220;2023-05-19T00:44:55;94478.47;;;10.07;71.22
73600;BME280;61877;48.246;9.220;2023-05-19T00:47:21;94482.56;;;10.05;71.96
73600;BME280;61877;48.246;9.220;2023-05-19T00:49:46;94489.03;;;10.04;72.03
73600;BME280;61877;48.246;9.220;2023-05-19T00:52:11;94484.34;;;10.01;71.34
73600;BME280;61877;48.246;9.220;2023-05-19T00:54:38;94481.19;;;9.99;71.60
73600;BME280;61877;48.246;9.220;2023-05-19T00:57:05;94482.31;;;9.98;71.52
73600;BME280;61877;48.246;9.220;2023-05-19T00:59:31;94484.19;;;9.97;71.56
73600;BME280;61877;48.246;9.220;2023-05-19T01:01:56;94475.34;;;9.97;72.32
73600;BME280;61877;48.246;9.220;2023-05-19T01:04:22;94475.69;;;9.95;72.43
73600;BME280;61877;48.246;9.220;2023-05-19T01:06:48;94475.22;;;9.93;73.10
73600;BME280;61877;48.246;9.220;2023-05-19T01:09:13;94474.91;;;9.95;71.34
73600;BME280;61877;48.246;9.220;2023-05-19T01:11:38;94468.31;;;9.92;71.85
73600;BME280;61877;48.246;9.220;2023-05-19T01:14:05;94469.09;;;9.93;72.11
73600;BME280;61877;48.246;9.220;2023-05-19T01:16:35;94461.72;;;9.90;72.23
73600;BME280;61877;48.246;9.220;2023-05-19T01:19:12;94461.88;;;9.85;72.75
73600;BME280;61877;48.246;9.220;2023-05-19T01:22:01;94467.88;;;9.82;73.18
73600;BME280;61877;48.246;9.220;2023-05-19T01:24:47;94471.66;;;9.81;73.50
73600;BME280;61877;48.246;9.220;2023-05-19T01:27:32;94463.47;;;9.77;73.37
73600;BME280;61877;48.246;9.220;2023-05-19T01:30:27;94471.69;;;9.72;73.29
73600;BME280;61877;48.246;9.220;2023-05-19T01:32:57;94475.28;;;9.85;72.91
73600;BME280;61877;48.246;9.220;2023-05-19T01:35:24;94473.22;;;9.82;72.94
73600;BME280;61877;48.246;9.220;2023-05-19T01:37:51;94475.59;;;9.83;73.30
73600;BME280;61877;48.246;9.220;2023-05-19T01:40:17;94476.09;;;9.77;74.58
73600;BME280;61877;48.246;9.220;2023-05-19T01:42:45;94471.22;;;9.70;73.34
73600;BME280;61877;48.246;9.220;2023-05-19T01:45:11;94477.81;;;9.81;73.22
73600;BME280;61877;48.246;9.220;2023-05-19T01:47:40;94483.50;;;9.80;73.01
73600;BME280;61877;48.246;9.220;2023-05-19T01:50:07;94474.53;;;9.76;73.15
73600;BME280;61877;48.246;9.220;2023-05-19T01:52:35;94476.91;;;9.69;74.07
73600;BME280;61877;48.246;9.220;2023-05-19T01:55:01;94473.75;;;9.67;74.21
73600;BME280;61877;48.246;9.220;2023-05-19T01:57:32;94470.81;;;9.60;73.84
73600;BME280;61877;48.246;9.220;2023-05-19T02:00:06;94469.88;;;9.56;73.62
73600;BME280;61877;48.246;9.220;2023-05-19T02:02:46;94463.13;;;9.50;74.01
73600;BME280;61877;48.246;9.220;2023-05-19T02:05:19;94469.59;;;9.49;74.19
73600;BME280;61877;48.246;9.220;2023-05-19T02:07:51;94470.41;;;9.41;74.77
73600;BME280;61877;48.246;9.220;2023-05-19T02:10:26;94466.97;;;9.32;74.44
73600;BME280;61877;48.246;9.220;2023-05-19T02:12:53;94463.03;;;9.29;75.35
73600;BME280;61877;48.246;9.220;2023-05-19T02:15:24;94469.53;;;9.20;75.44
73600;BME280;61877;48.246;9.220;2023-05-19T02:17:52;94461.66;;;9.14;75.95
73600;BME280;61877;48.246;9.220;2023-05-19T02:20:19;94464.81;;;9.17;76.14
73600;BME280;61877;48.246;9.220;2023-05-19T02:22:45;94464.50;;;9.09;76.11
73600;BME280;61877;48.246;9.220;2023-05-19T02:25:10;94468.75;;;9.02;77.02
73600;BME280;61877;48.246;9.220;2023-05-19T02:27:37;94456.97;;;8.94;77.13
73600;BME280;61877;48.246;9.220;2023-05-19T02:30:03;94460.63;;;8.90;77.74
73600;BME280;61877;48.246;9.220;2023-05-19T02:32:28;94463.59;;;8.88;77.23
73600;BME280;61877;48.246;9.220;2023-05-19T02:34:55;94461.88;;;8.84;78.09
73600;BME280;61877;48.246;9.220;2023-05-19T02:37:20;94456.66;;;8.79;77.56
73600;BME280;61877;48.246;9.220;2023-05-19T02:39:45;94454.47;;;8.81;78.31
73600;BME280;61877;48.246;9.220;2023-05-19T02:42:11;94447.25;;;8.81;77.47
73600;BME280;61877;48.246;9.220;2023-05-19T02:44:36;94456.06;;;8.82;78.18
73600;BME280;61877;48.246;9.220;2023-05-19T02:47:02;94454.31;;;8.77;77.47
73600;BME280;61877;48.246;9.220;2023-05-19T02:49:27;94449.75;;;8.78;78.43
73600;BME280;61877;48.246;9.220;2023-05-19T02:51:55;94445.53;;;8.77;77.78
73600;BME280;61877;48.246;9.220;2023-05-19T02:54:21;94449.44;;;8.79;77.43
73600;BME280;61877;48.246;9.220;2023-05-19T02:56:46;94452.91;;;8.88;76.93
73600;BME280;61877;48.246;9.220;2023-05-19T02:59:12;94446.75;;;8.88;76.49
73600;BME280;61877;48.246;9.220;2023-05-19T03:01:37;94446.91;;;8.91;76.81
73600;BME280;61877;48.246;9.220;2023-05-19T03:04:03;94453.81;;;8.92;77.12
73600;BME280;61877;48.246;9.220;2023-05-19T03:06:28;94445.47;;;8.94;76.09
73600;BME280;61877;48.246;9.220;2023-05-19T03:08:55;94448.47;;;8.92;75.70
73600;BME280;61877;48.246;9.220;2023-05-19T03:11:20;94455.56;;;8.97;77.04
73600;BME280;61877;48.246;9.220;2023-05-19T03:13:45;94447.84;;;8.95;77.06
73600;BME280;61877;48.246;9.220;2023-05-19T03:16:11;94451.16;;;8.92;77.14
73600;BME280;61877;48.246;9.220;2023-05-19T03:18:37;94452.59;;;8.90;75.83
73600;BME280;61877;48.246;9.220;2023-05-19T03:21:02;94456.50;;;8.92;76.42
73600;BME280;61877;48.246;9.220;2023-05-19T03:23:28;94459.66;;;8.94;76.44
73600;BME280;61877;48.246;9.220;2023-05-19T03:25:54;94460.13;;;8.96;76.38
73600;BME280;61877;48.246;9.220;2023-05-19T03:28:20;94464.69;;;8.96;76.56
73600;BME280;61877;48.246;9.220;2023-05-19T03:30:46;94459.97;;;8.93;77.45
73600;BME280;61877;48.246;9.220;2023-05-19T03:33:11;94456.03;;;8.90;76.64
73600;BME280;61877;48.246;9.220;2023-05-19T03:35:36;94456.50;;;8.92;75.67
73600;BME280;61877;48.246;9.220;2023-05-19T03:38:02;94453.19;;;8.95;76.75
73600;BME280;61877;48.246;9.220;2023-05-19T03:40:27;94449.91;;;8.90;77.66
73600;BME280;61877;48.246;9.220;2023-05-19T03:42:54;94446.44;;;8.98;75.99
73600;BME280;61877;48.246;9.220;2023-05-19T03:45:19;94456.97;;;8.94;75.97
73600;BME280;61877;48.246;9.220;2023-05-19T03:47:45;94457.31;;;8.84;77.03
73600;BME280;61877;48.246;9.220;2023-05-19T03:50:10;94458.59;;;8.78;77.14
73600;BME280;61877;48.246;9.220;2023-05-19T03:52:35;94454.78;;;8.79;77.49
73600;BME280;61877;48.246;9.220;2023-05-19T03:55:01;94449.44;;;8.79;76.45
73600;BME280;61877;48.246;9.220;2023-05-19T03:57:26;94458.59;;;8.78;77.42
73600;BME280;61877;48.246;9.220;2023-05-19T03:59:53;94459.06;;;8.80;78.06
73600;BME280;61877;48.246;9.220;2023-05-19T04:02:20;94461.41;;;8.82;77.13
73600;BME280;61877;48.246;9.220;2023-05-19T04:04:46;94461.25;;;8.78;76.58
73600;BME280;61877;48.246;9.220;2023-05-19T04:07:11;94454.63;;;8.84;77.34
73600;BME280;61877;48.246;9.220;2023-05-19T04:09:36;94451.16;;;8.92;76.73
73600;BME280;61877;48.246;9.220;2023-05-19T04:12:02;94450.69;;;8.90;77.49
73600;BME280;61877;48.246;9.220;2023-05-19T04:14:27;94456.19;;;8.94;77.20
73600;BME280;61877;48.246;9.220;2023-05-19T04:16:54;94455.56;;;8.97;77.38
73600;BME280;61877;48.246;9.220;2023-05-19T04:19:19;94453.97;;;8.96;77.67
73600;BME280;61877;48.246;9.220;2023-05-19T04:21:45;94447.34;;;9.02;77.21
73600;BME280;61877;48.246;9.220;2023-05-19T04:24:10;94454.44;;;9.06;77.33
73600;BME280;61877;48.246;9.220;2023-05-19T04:26:35;94456.00;;;9.07;77.51
73600;BME280;61877;48.246;9.220;2023-05-19T04:29:01;94453.16;;;9.12;77.04
73600;BME280;61877;48.246;9.220;2023-05-19T04:31:26;94451.25;;;9.22;76.54
73600;BME280;61877;48.246;9.220;2023-05-19T04:33:53;94449.34;;;9.22;76.59
73600;BME280;61877;48.246;9.220;2023-05-19T04:36:18;94455.63;;;9.35;76.29
73600;BME280;61877;48.246;9.220;2023-05-19T04:38:46;94452.31;;;9.38;75.18
73600;BME280;61877;48.246;9.220;2023-05-19T04:41:11;94445.03;;;9.47;75.89
73600;BME280;61877;48.246;9.220;2023-05-19T04:43:37;94445.63;;;9.52;75.12
73600;BME280;61877;48.246;9.220;2023-05-19T04:46:02;94451.09;;;9.64;74.75
73600;BME280;61877;48.246;9.220;2023-05-19T04:48:28;94446.97;;;9.67;75.30
73600;BME280;61877;48.246;9.220;2023-05-19T04:50:55;94439.50;;;9.81;73.51
73600;BME280;61877;48.246;9.220;2023-05-19T04:53:20;94448.75;;;9.92;73.38
73600;BME280;61877;48.246;9.220;2023-05-19T04:55:45;94447.19;;;9.91;74.35
73600;BME280;61877;48.246;9.220;2023-05-19T04:58:11;94449.34;;;9.97;73.96
73600;BME280;61877;48.246;9.220;2023-05-19T05:00:36;94454.66;;;10.06;72.92
73600;BME280;61877;48.246;9.220;2023-05-19T05:03:02;94447.66;;;9.93;72.31
73600;BME280;61877;48.246;9.220;2023-05-19T05:05:27;94454.66;;;10.06;72.84
73600;BME280;61877;48.246;9.220;2023-05-19T05:07:54;94451.97;;;10.14;72.38
73600;BME280;61877;48.246;9.220;2023-05-19T05:10:19;94441.00;;;10.28;72.59
73600;BME280;61877;48.246;9.220;2023-05-19T05:12:45;94447.00;;;10.25;71.78
73600;BME280;61877;48.246;9.220;2023-05-19T05:15:11;94440.44;;;10.14;72.28
73600;BME280;61877;48.246;9.220;2023-05-19T05:17:37;94448.97;;;10.16;72.07
73600;BME280;61877;48.246;9.220;2023-05-19T05:20:03;94440.78;;;10.12;71.45
73600;BME280;61877;48.246;9.220;2023-05-19T05:22:29;94446.59;;;10.14;72.37
73600;BME280;61877;48.246;9.220;2023-05-19T05:24:57;94449.69;;;10.25;72.69
73600;BME280;61877;48.246;9.220;2023-05-19T05:27:22;94451.31;;;10.17;71.89
73600;BME280;61877;48.246;9.220;2023-05-19T05:29:48;94451.50;;;10.33;71.65
73600;BME280;61877;48.246;9.220;2023-05-19T05:32:13;94444.19;;;10.42;71.71
73600;BME280;61877;48.246;9.220;2023-05-19T05:34:38;94446.88;;;10.42;71.35
73600;BME280;61877;48.246;9.220;2023-05-19T05:37:04;94448.13;;;10.65;72.33
73600;BME280;61877;48.246;9.220;2023-05-19T05:39:29;94443.09;;;10.64;70.26
73600;BME280;61877;48.246;9.220;2023-05-19T05:42:18;94449.25;;;10.97;70.48
73600;BME280;61877;48.246;9.220;2023-05-19T05:44:44;94445.38;;;11.06;70.63
73600;BME280;61877;48.246;9.220;2023-05-19T05:47:22;94458.03;;;11.50;69.12
73600;BME280;61877;48.246;9.220;2023-05-19T05:50:09;94446.13;;;11.27;68.85
73600;BME280;61877;48.246;9.220;2023-05-19T05:52:35;94449.97;;;11.50;67.76
73600;BME280;61877;48.246;9.220;2023-05-19T05:55:01;94448.59;;;11.44;67.62
73600;BME280;61877;48.246;9.220;2023-05-19T05:57:28;94445.06;;;11.64;67.85
73600;BME280;61877;48.246;9.220;2023-05-19T05:59:54;94442.06;;;11.90;67.66
73600;BME280;61877;48.246;9.220;2023-05-19T06:02:22;94439.16;;;11.83;66.59
73600;BME280;61877;48.246;9.220;2023-05-19T06:04:50;94448.00;;;12.08;65.10
73600;BME280;61877;48.246;9.220;2023-05-19T06:07:17;94446.84;;;12.21;65.00
73600;BME280;61877;48.246;9.220;2023-05-19T06:09:43;94440.91;;;12.39;63.60
73600;BME280;61877;48.246;9.220;2023-05-19T06:12:08;94439.22;;;12.47;63.96
73600;BME280;61877;48.246;9.220;2023-05-19T06:14:35;94432.94;;;12.43;63.61
73600;BME280;61877;48.246;9.220;2023-05-19T06:17:01;94437.38;;;12.63;63.15
73600;BME280;61877;48.246;9.220;2023-05-19T06:19:26;94438.72;;;12.57;64.51
73600;BME280;61877;48.246;9.220;2023-05-19T06:21:51;94436.03;;;12.57;64.24
73600;BME280;61877;48.246;9.220;2023-05-19T06:24:17;94436.81;;;12.57;64.13
73600;BME280;61877;48.246;9.220;2023-05-19T06:26:42;94443.47;;;12.48;65.08
73600;BME280;61877;48.246;9.220;2023-05-19T06:29:25;94443.84;;;12.62;64.45
73600;BME280;61877;48.246;9.220;2023-05-19T06:31:55;94444.50;;;12.31;63.77
73600;BME280;61877;48.246;9.220;2023-05-19T06:37:23;94446.66;;;12.02;66.08
73600;BME280;61877;48.246;9.220;2023-05-19T06:40:12;94448.00;;;12.32;64.32
73600;BME280;61877;48.246;9.220;2023-05-19T06:45:38;94448.69;;;12.05;65.63
73600;BME280;61877;48.246;9.220;2023-05-19T06:50:51;94444.50;;;12.31;64.80
73600;BME280;61877;48.246;9.220;2023-05-19T06:53:18;94449.56;;;11.85;65.08
73600;BME280;61877;48.246;9.220;2023-05-19T06:55:44;94436.31;;;12.28;64.92
73600;BME280;61877;48.246;9.220;2023-05-19T06:58:13;94437.72;;;12.61;64.74
73600;BME280;61877;48.246;9.220;2023-05-19T07:13:15;94434.03;;;12.54;63.14
73600;BME280;61877;48.246;9.220;2023-05-19T07:15:41;94438.63;;;12.53;62.59
73600;BME280;61877;48.246;9.220;2023-05-19T07:18:06;94432.19;;;12.70;62.38
73600;BME280;61877;48.246;9.220;2023-05-19T07:20:31;94438.41;;;12.46;62.98
73600;BME280;61877;48.246;9.220;2023-05-19T07:22:57;94437.94;;;12.56;64.08
73600;BME280;61877;48.246;9.220;2023-05-19T07:25:22;94438.69;;;13.09;61.35
73600;BME280;61877;48.246;9.220;2023-05-19T07:27:47;94437.94;;;13.24;61.44
73600;BME280;61877;48.246;9.220;2023-05-19T07:30:14;94439.97;;;13.42;59.52
73600;BME280;61877;48.246;9.220;2023-05-19T07:32:40;94436.38;;;13.23;61.03
73600;BME280;61877;48.246;9.220;2023-05-19T07:35:06;94441.13;;;13.14;61.70
73600;BME280;61877;48.246;9.220;2023-05-19T07:37:31;94428.75;;;13.25;60.93
73600;BME280;61877;48.246;9.220;2023-05-19T07:39:56;94435.09;;;13.63;60.18
73600;BME280;61877;48.246;9.220;2023-05-19T07:42:22;94434.00;;;13.64;60.02
73600;BME280;61877;48.246;9.220;2023-05-19T07:44:47;94427.44;;;13.96;58.02
73600;BME280;61877;48.246;9.220;2023-05-19T07:47:14;94436.16;;;13.90;58.93
73600;BME280;61877;48.246;9.220;2023-05-19T07:49:39;94432.94;;;13.53;59.63
73600;BME280;61877;48.246;9.220;2023-05-19T07:52:05;94434.84;;;13.84;58.92
73600;BME280;61877;48.246;9.220;2023-05-19T07:54:31;94431.22;;;13.61;59.47
73600;BME280;61877;48.246;9.220;2023-05-19T07:56:56;94436.66;;;13.49;60.18
73600;BME280;61877;48.246;9.220;2023-05-19T07:59:22;94433.38;;;13.55;58.65
73600;BME280;61877;48.246;9.220;2023-05-19T08:01:49;94432.56;;;13.39;59.54
73600;BME280;61877;48.246;9.220;2023-05-19T08:07:26;94428.88;;;13.59;58.82
73600;BME280;61877;48.246;9.220;2023-05-19T08:09:51;94425.88;;;13.49;59.95
73600;BME280;61877;48.246;9.220;2023-05-19T08:12:17;94431.38;;;13.83;59.89
73600;BME280;61877;48.246;9.220;2023-05-19T08:14:42;94423.28;;;13.83;57.89
73600;BME280;61877;48.246;9.220;2023-05-19T08:17:07;94426.16;;;13.90;57.50
73600;BME280;61877;48.246;9.220;2023-05-19T08:19:33;94418.19;;;14.13;58.37
73600;BME280;61877;48.246;9.220;2023-05-19T08:21:58;94425.44;;;13.93;58.33
73600;BME280;61877;48.246;9.220;2023-05-19T08:24:25;94423.78;;;14.55;57.94
73600;BME280;61877;48.246;9.220;2023-05-19T08:26:50;94432.22;;;14.18;59.22
73600;BME280;61877;48.246;9.220;2023-05-19T08:29:16;94432.41;;;14.26;57.07
73600;BME280;61877;48.246;9.220;2023-05-19T08:31:41;94415.53;;;13.97;56.86
73600;BME280;61877;48.246;9.220;2023-05-19T08:34:07;94418.28;;;14.32;57.71
73600;BME280;61877;48.246;9.220;2023-05-19T08:36:32;94420.72;;;14.21;56.19
73600;BME280;61877;48.246;9.220;2023-05-19T08:38:57;94416.44;;;14.36;55.90
73600;BME280;61877;48.246;9.220;2023-05-19T08:41:24;94412.91;;;14.51;54.47
73600;BME280;61877;48.246;9.220;2023-05-19T08:43:50;94416.25;;;14.45;56.61
73600;BME280;61877;48.246;9.220;2023-05-19T08:46:15;94406.53;;;14.78;57.02
73600;BME280;61877;48.246;9.220;2023-05-19T08:48:42;94408.31;;;14.90;55.68
73600;BME280;61877;48.246;9.220;2023-05-19T08:51:12;94413.22;;;15.03;56.56
73600;BME280;61877;48.246;9.220;2023-05-19T08:53:40;94415.53;;;15.24;54.71
73600;BME280;61877;48.246;9.220;2023-05-19T08:56:10;94402.38;;;15.41;53.96
73600;BME280;61877;48.246;9.220;2023-05-19T08:58:38;94411.13;;;15.35;54.42
73600;BME280;61877;48.246;9.220;2023-05-19T09:01:05;94413.50;;;15.59;53.53
73600;BME280;61877;48.246;9.220;2023-05-19T09:03:31;94412.66;;;15.13;53.74
73600;BME280;61877;48.246;9.220;2023-05-19T09:05:57;94409.59;;;15.15;55.62
73600;BME280;61877;48.246;9.220;2023-05-19T09:08:23;94410.41;;;15.38;54.99
73600;BME280;61877;48.246;9.220;2023-05-19T09:10:48;94411.13;;;15.35;53.90
73600;BME280;61877;48.246;9.220;2023-05-19T09:13:13;94408.25;;;15.47;52.64
73600;BME280;61877;48.246;9.220;2023-05-19T09:15:41;94399.34;;;15.05;53.35
73600;BME280;61877;48.246;9.220;2023-05-19T09:18:07;94396.88;;;14.96;54.25
73600;BME280;61877;48.246;9.220;2023-05-19T09:20:35;94397.41;;;15.66;52.82
73600;BME280;61877;48.246;9.220;2023-05-19T09:23:01;94400.38;;;16.32;53.38
73600;BME280;61877;48.246;9.220;2023-05-19T09:25:26;94402.03;;;16.14;50.80
73600;BME280;61877;48.246;9.220;2023-05-19T09:27:53;94395.94;;;16.21;50.84
73600;BME280;61877;48.246;9.220;2023-05-19T09:30:19;94400.50;;;16.13;51.91
73600;BME280;61877;48.246;9.220;2023-05-19T09:32:46;94394.47;;;16.01;52.96
73600;BME280;61877;48.246;9.220;2023-05-19T09:35:12;94403.81;;;16.29;52.06
73600;BME280;61877;48.246;9.220;2023-05-19T09:37:38;94385.84;;;16.44;52.04
73600;BME280;61877;48.246;9.220;2023-05-19T09:40:06;94394.75;;;16.18;50.32
73600;BME280;61877;48.246;9.220;2023-05-19T09:42:36;94390.59;;;16.50;51.37
73600;BME280;61877;48.246;9.220;2023-05-19T09:45:02;94388.53;;;16.44;50.77
73600;BME280;61877;48.246;9.220;2023-05-19T09:47:32;94379.91;;;16.61;52.14
73600;BME280;61877;48.246;9.220;2023-05-19T09:49:59;94385.97;;;16.81;52.11
73600;BME280;61877;48.246;9.220;2023-05-19T09:52:24;94390.97;;;16.00;52.63
73600;BME280;61877;48.246;9.220;2023-05-19T09:54:50;94386.63;;;16.18;52.11
73600;BME280;61877;48.246;9.220;2023-05-19T09:57:15;94392.00;;;15.66;53.93
73600;BME280;61877;48.246;9.220;2023-05-19T09:59:42;94391.47;;;15.38;52.20
73600;BME280;61877;48.246;9.220;2023-05-19T10:02:15;94387.38;;;15.25;53.57
73600;BME280;61877;48.246;9.220;2023-05-19T10:04:41;94393.63;;;15.48;52.56
73600;BME280;61877;48.246;9.220;2023-05-19T10:07:09;94390.47;;;15.69;53.72
73600;BME280;61877;48.246;9.220;2023-05-19T10:09:36;94395.34;;;15.37;54.30
73600;BME280;61877;48.246;9.220;2023-05-19T10:12:02;94394.75;;;15.47;54.59
73600;BME280;61877;48.246;9.220;2023-05-19T10:14:28;94390.69;;;15.57;54.50
73600;BME280;61877;48.246;9.220;2023-05-19T10:16:55;94382.81;;;15.48;53.25
73600;BME280;61877;48.246;9.220;2023-05-19T10:19:21;94390.28;;;16.29;53.35
73600;BME280;61877;48.246;9.220;2023-05-19T10:21:48;94398.53;;;16.40;51.12
73600;BME280;61877;48.246;9.220;2023-05-19T10:24:14;94392.13;;;16.25;51.14
73600;BME280;61877;48.246;9.220;2023-05-19T10:26:43;94393.38;;;15.79;52.89
73600;BME280;61877;48.246;9.220;2023-05-19T10:29:10;94387.75;;;15.69;54.21
73600;BME280;61877;48.246;9.220;2023-05-19T10:31:37;94391.19;;;15.88;52.62
73600;BME280;61877;48.246;9.220;2023-05-19T10:34:22;94388.78;;;15.38;54.33
73600;BME280;61877;48.246;9.220;2023-05-19T10:37:02;94394.88;;;15.54;54.45
73600;BME280;61877;48.246;9.220;2023-05-19T10:39:34;94391.47;;;15.38;55.30
73600;BME280;61877;48.246;9.220;2023-05-19T10:42:05;94393.53;;;15.25;57.00
73600;BME280;61877;48.246;9.220;2023-05-19T10:44:40;94402.56;;;15.10;55.98
73600;BME280;61877;48.246;9.220;2023-05-19T10:47:10;94397.25;;;15.17;54.75
73600;BME280;61877;48.246;9.220;2023-05-19T10:49:35;94391.03;;;15.36;54.85
73600;BME280;61877;48.246;9.220;2023-05-19T10:52:00;94390.59;;;14.92;55.19
73600;BME280;61877;48.246;9.220;2023-05-19T10:54:42;94386.53;;;15.21;57.45
73600;BME280;61877;48.246;9.220;2023-05-19T10:57:08;94389.38;;;15.09;55.77
73600;BME280;61877;48.246;9.220;2023-05-19T10:59:41;94388.13;;;15.25;56.36
73600;BME280;61877;48.246;9.220;2023-05-19T11:02:07;94382.63;;;15.18;55.86
73600;BME280;61877;48.246;9.220;2023-05-19T11:04:45;94381.94;;;15.44;55.41
73600;BME280;61877;48.246;9.220;2023-05-19T11:07:15;94384.88;;;15.81;54.43
73600;BME280;61877;48.246;9.220;2023-05-19T11:09:42;94383.22;;;15.73;53.67
73600;BME280;61877;48.246;9.220;2023-05-19T11:12:08;94379.13;;;15.60;56.41
73600;BME280;61877;48.246;9.220;2023-05-19T11:15:17;94379.09;;;15.37;54.95
73600;BME280;61877;48.246;9.220;2023-05-19T11:17:46;94388.53;;;15.05;56.55
73600;BME280;61877;48.246;9.220;2023-05-19T11:20:22;94390.84;;;14.84;56.84
73600;BME280;61877;48.246;9.220;2023-05-19T11:23:05;94395.38;;;14.80;55.98
73600;BME280;61877;48.246;9.220;2023-05-19T11:25:42;94384.72;;;14.68;57.48
73600;BME280;61877;48.246;9.220;2023-05-19T11:28:09;94387.19;;;14.38;57.15
73600;BME280;61877;48.246;9.220;2023-05-19T11:30:35;94382.44;;;14.51;57.03
73600;BME280;61877;48.246;9.220;2023-05-19T11:33:01;94390.13;;;14.68;58.30
73600;BME280;61877;48.246;9.220;2023-05-19T11:35:28;94394.81;;;14.52;57.34
73600;BME280;61877;48.246;9.220;2023-05-19T11:37:55;94403.97;;;14.66;56.92
73600;BME280;61877;48.246;9.220;2023-05-19T11:40:20;94402.31;;;14.43;57.62
73600;BME280;61877;48.246;9.220;2023-05-19T11:42:50;94402.44;;;14.15;57.27
73600;BME280;61877;48.246;9.220;2023-05-19T11:45:15;94389.31;;;14.29;59.10
73600;BME280;61877;48.246;9.220;2023-05-19T11:47:44;94391.81;;;14.22;57.93
73600;BME280;61877;48.246;9.220;2023-05-19T11:50:13;94385.72;;;14.41;58.00
73600;BME280;61877;48.246;9.220;2023-05-19T11:55:41;94397.09;;;14.69;56.66
73600;BME280;61877;48.246;9.220;2023-05-19T11:58:08;94394.94;;;14.78;56.44
73600;BME280;61877;48.246;9.220;2023-05-19T12:01:02;94396.94;;;14.81;58.12
73600;BME280;61877;48.246;9.220;2023-05-19T12:03:29;94395.94;;;14.70;57.02
73600;BME280;61877;48.246;9.220;2023-05-19T12:05:55;94399.88;;;14.38;57.02
73600;BME280;61877;48.246;9.220;2023-05-19T12:08:22;94393.22;;;14.32;58.54
73600;BME280;61877;48.246;9.220;2023-05-19T12:13:39;94392.09;;;14.52;57.75
73600;BME280;61877;48.246;9.220;2023-05-19T12:16:05;94402.50;;;14.69;58.87
73600;BME280;61877;48.246;9.220;2023-05-19T12:18:36;94402.34;;;14.81;58.06
73600;BME280;61877;48.246;9.220;2023-05-19T12:21:03;94399.78;;;14.88;57.42
73600;BME280;61877;48.246;9.220;2023-05-19T12:23:29;94401.78;;;14.72;57.08
73600;BME280;61877;48.246;9.220;2023-05-19T12:25:56;94404.34;;;14.84;56.21
73600;BME280;61877;48.246;9.220;2023-05-19T12:28:25;94396.06;;;15.15;54.86
73600;BME280;61877;48.246;9.220;2023-05-19T12:30:55;94396.91;;;15.61;55.40
73600;BME280;61877;48.246;9.220;2023-05-19T12:33:24;94397.16;;;15.52;54.16
73600;BME280;61877;48.246;9.220;2023-05-19T12:35:53;94395.72;;;15.16;54.48
73600;BME280;61877;48.246;9.220;2023-05-19T12:38:47;94394.41;;;14.69;55.89
73600;BME280;61877;48.246;9.220;2023-05-19T12:41:17;94390.59;;;14.54;55.81
73600;BME280;61877;48.246;9.220;2023-05-19T12:46:51;94408.63;;;14.31;56.31
73600;BME280;61877;48.246;9.220;2023-05-19T12:49:22;94401.66;;;14.14;57.39
73600;BME280;61877;48.246;9.220;2023-05-19T12:52:39;94397.81;;;14.31;57.57
73600;BME280;61877;48.246;9.220;2023-05-19T12:55:05;94394.66;;;14.45;56.78
73600;BME280;61877;48.246;9.220;2023-05-19T12:57:33;94396.00;;;14.19;56.98
73600;BME280;61877;48.246;9.220;2023-05-19T12:59:59;94399.41;;;14.32;58.65
73600;BME280;61877;48.246;9.220;2023-05-19T13:02:26;94391.47;;;14.58;57.07
73600;BME280;61877;48.246;9.220;2023-05-19T13:04:55;94391.78;;;14.38;57.79
73600;BME280;61877;48.246;9.220;2023-05-19T13:07:51;94385.84;;;14.67;58.90
73600;BME280;61877;48.246;9.220;2023-05-19T13:10:17;94383.50;;;14.46;56.20
73600;BME280;61877;48.246;9.220;2023-05-19T13:12:43;94379.19;;;14.61;57.14
73600;BME280;61877;48.246;9.220;2023-05-19T13:15:15;94386.91;;;14.81;56.14
73600;BME280;61877;48.246;9.220;2023-05-19T13:17:45;94380.50;;;14.89;55.31
73600;BME280;61877;48.246;9.220;2023-05-19T13:20:12;94377.34;;;14.84;55.20
73600;BME280;61877;48.246;9.220;2023-05-19T13:22:38;94374.88;;;15.17;57.16
73600;BME280;61877;48.246;9.220;2023-05-19T13:25:04;94373.38;;;15.19;56.80
73600;BME280;61877;48.246;9.220;2023-05-19T13:27:30;94374.22;;;14.82;55.86
73600;BME280;61877;48.246;9.220;2023-05-19T13:29:56;94377.63;;;14.79;55.36
73600;BME280;61877;48.246;9.220;2023-05-19T13:32:24;94378.88;;;14.85;55.87
73600;BME280;61877;48.246;9.220;2023-05-19T13:34:51;94386.50;;;14.79;56.52
73600;BME280;61877;48.246;9.220;2023-05-19T13:37:17;94377.69;;;14.63;55.90
73600;BME280;61877;48.246;9.220;2023-05-19T13:39:57;94374.47;;;14.58;55.34